KLM274 EHAM-EKCH
Flight info
| Callsign | KLM274 |
|---|---|
| Flight time | 0h 59m |
| Altitude | 33000 |
| Route | ANDIK N873 JUIST DCT DOSUR P729 TUDLO |
| Aircraft | A21N/M-SDE2E3FGHIRWXY/LB1 |
Departure
| Time | 2026-05-06 20:37 |
|---|---|
| Airport | Amsterdam Airport Schiphol (EHAM) |
Arrival
| Time | 2026-05-06 21:36 |
|---|---|
| Airport | Copenhagen Kastrup Airport (EKCH) |
| Time | Latitude | Longitude | Altitude | Speed | Heading |
|---|---|---|---|---|---|
| 2026-05-06 20:18 | 52.30998 | 4.77239 | -1 ft | 0 kts | 182° |
| 2026-05-06 20:26 | 52.31002 | 4.77239 | -1 ft | 3 kts | 182° |
| 2026-05-06 20:26 | 52.31028 | 4.77240 | -1 ft | 4 kts | 178° |
| 2026-05-06 20:26 | 52.31055 | 4.77236 | -1 ft | 4 kts | 162° |
| 2026-05-06 20:26 | 52.31075 | 4.77217 | -1 ft | 4 kts | 109° |
| 2026-05-06 20:27 | 52.31077 | 4.77207 | -1 ft | 0 kts | 93° |
| 2026-05-06 20:28 | 52.31075 | 4.77251 | -1 ft | 8 kts | 93° |
| 2026-05-06 20:28 | 52.31070 | 4.77378 | -1 ft | 12 kts | 93° |
| 2026-05-06 20:28 | 52.31034 | 4.77481 | -1 ft | 12 kts | 167° |
| 2026-05-06 20:29 | 52.30934 | 4.77479 | -1 ft | 17 kts | 183° |
| 2026-05-06 20:29 | 52.30800 | 4.77465 | -1 ft | 22 kts | 184° |
| 2026-05-06 20:29 | 52.30654 | 4.77429 | -1 ft | 20 kts | 214° |
| 2026-05-06 20:29 | 52.30574 | 4.77249 | -1 ft | 21 kts | 239° |
| 2026-05-06 20:30 | 52.30493 | 4.77030 | -1 ft | 23 kts | 238° |
| 2026-05-06 20:30 | 52.30310 | 4.76561 | -1 ft | 27 kts | 238° |
| 2026-05-06 20:30 | 52.30221 | 4.76323 | -1 ft | 0 kts | 238° |
| 2026-05-06 20:31 | 52.30217 | 4.76313 | -1 ft | 5 kts | 238° |
| 2026-05-06 20:31 | 52.30166 | 4.76182 | -1 ft | 21 kts | 237° |
| 2026-05-06 20:31 | 52.30080 | 4.75960 | -1 ft | 23 kts | 238° |
| 2026-05-06 20:31 | 52.29995 | 4.75739 | -1 ft | 22 kts | 237° |
| 2026-05-06 20:32 | 52.29916 | 4.75533 | -1 ft | 21 kts | 238° |
| 2026-05-06 20:32 | 52.29847 | 4.75352 | -1 ft | 13 kts | 238° |
| 2026-05-06 20:32 | 52.29841 | 4.75210 | -1 ft | 15 kts | 292° |
| 2026-05-06 20:32 | 52.29916 | 4.75062 | -1 ft | 17 kts | 311° |
| 2026-05-06 20:33 | 52.29992 | 4.74920 | -1 ft | 16 kts | 311° |
| 2026-05-06 20:33 | 52.30064 | 4.74786 | 0 ft | 16 kts | 309° |
| 2026-05-06 20:33 | 52.30125 | 4.74666 | 8 ft | 10 kts | 311° |
| 2026-05-06 20:33 | 52.30177 | 4.74572 | 10 ft | 14 kts | 312° |
| 2026-05-06 20:34 | 52.30242 | 4.74450 | 10 ft | 14 kts | 310° |
| 2026-05-06 20:34 | 52.30305 | 4.74330 | 4 ft | 17 kts | 310° |
| 2026-05-06 20:34 | 52.30364 | 4.74154 | -1 ft | 15 kts | 266° |
| 2026-05-06 20:34 | 52.30319 | 4.74036 | -1 ft | 15 kts | 219° |
| 2026-05-06 20:35 | 52.30231 | 4.73922 | -1 ft | 14 kts | 218° |
| 2026-05-06 20:35 | 52.30192 | 4.73797 | -2 ft | 12 kts | 290° |
| 2026-05-06 20:35 | 52.30242 | 4.73744 | -3 ft | 0 kts | 5° |
| 2026-05-06 20:36 | 52.30416 | 4.73756 | -3 ft | 58 kts | 2° |
| 2026-05-06 20:36 | 52.31019 | 4.73812 | 0 ft | 112 kts | 4° |
| 2026-05-06 20:36 | 52.31938 | 4.73906 | -1 ft | 153 kts | 4° |
| 2026-05-06 20:36 | 52.33031 | 4.74034 | 424 ft | 156 kts | 7° |
| 2026-05-06 20:37 | 52.34077 | 4.74396 | 1100 ft | 153 kts | 24° |
| 2026-05-06 20:37 | 52.35098 | 4.75097 | 1454 ft | 168 kts | 25° |
| 2026-05-06 20:37 | 52.36232 | 4.75865 | 1574 ft | 189 kts | 24° |
| 2026-05-06 20:37 | 52.37519 | 4.76777 | 1753 ft | 214 kts | 31° |
| 2026-05-06 20:38 | 52.38720 | 4.78395 | 2116 ft | 233 kts | 46° |
| 2026-05-06 20:38 | 52.39892 | 4.80343 | 2814 ft | 241 kts | 46° |
| 2026-05-06 20:38 | 52.41082 | 4.82325 | 3591 ft | 245 kts | 45° |
| 2026-05-06 20:38 | 52.42274 | 4.84278 | 4442 ft | 247 kts | 41° |
| 2026-05-06 20:39 | 52.43773 | 4.85756 | 5207 ft | 252 kts | 20° |
| 2026-05-06 20:39 | 52.45525 | 4.86206 | 5955 ft | 259 kts | 360° |
| 2026-05-06 20:39 | 52.47338 | 4.86031 | 6721 ft | 263 kts | 360° |
| 2026-05-06 20:39 | 52.49166 | 4.85853 | 7476 ft | 266 kts | 358° |
| 2026-05-06 20:40 | 52.51029 | 4.85678 | 8156 ft | 271 kts | 359° |
| 2026-05-06 20:40 | 52.52914 | 4.86032 | 8801 ft | 276 kts | 16° |
| 2026-05-06 20:40 | 52.54666 | 4.87374 | 9495 ft | 282 kts | 34° |
| 2026-05-06 20:40 | 52.56100 | 4.89608 | 10122 ft | 289 kts | 50° |
| 2026-05-06 20:41 | 52.57362 | 4.92256 | 10341 ft | 309 kts | 51° |
| 2026-05-06 20:41 | 52.58753 | 4.95171 | 10474 ft | 332 kts | 51° |
| 2026-05-06 20:41 | 52.60228 | 4.98250 | 10607 ft | 352 kts | 51° |
| 2026-05-06 20:41 | 52.61763 | 5.01456 | 11071 ft | 360 kts | 50° |
| 2026-05-06 20:42 | 52.63322 | 5.04708 | 11651 ft | 364 kts | 51° |
| 2026-05-06 20:42 | 52.64901 | 5.08007 | 12271 ft | 369 kts | 50° |
| 2026-05-06 20:42 | 52.66494 | 5.11340 | 12866 ft | 374 kts | 50° |
| 2026-05-06 20:42 | 52.68111 | 5.14736 | 13476 ft | 378 kts | 51° |
| 2026-05-06 20:43 | 52.69743 | 5.18172 | 14009 ft | 383 kts | 51° |
| 2026-05-06 20:43 | 52.71389 | 5.21647 | 14534 ft | 387 kts | 50° |
| 2026-05-06 20:43 | 52.73056 | 5.25168 | 15031 ft | 392 kts | 50° |
| 2026-05-06 20:43 | 52.74739 | 5.28715 | 15569 ft | 394 kts | 51° |
| 2026-05-06 20:44 | 52.76439 | 5.32295 | 16091 ft | 398 kts | 50° |
| 2026-05-06 20:44 | 52.78154 | 5.35914 | 16582 ft | 402 kts | 51° |
| 2026-05-06 20:44 | 52.79881 | 5.39564 | 17115 ft | 405 kts | 50° |
| 2026-05-06 20:44 | 52.81601 | 5.43211 | 17593 ft | 409 kts | 50° |
| 2026-05-06 20:45 | 52.83376 | 5.46982 | 18102 ft | 412 kts | 51° |
| 2026-05-06 20:45 | 52.85139 | 5.50741 | 18521 ft | 415 kts | 51° |
| 2026-05-06 20:45 | 52.86890 | 5.54488 | 18985 ft | 418 kts | 51° |
| 2026-05-06 20:45 | 52.88698 | 5.58357 | 19418 ft | 421 kts | 51° |
| 2026-05-06 20:46 | 52.90491 | 5.62196 | 19862 ft | 423 kts | 51° |
| 2026-05-06 20:46 | 52.92301 | 5.66070 | 20305 ft | 426 kts | 51° |
| 2026-05-06 20:46 | 52.94117 | 5.69960 | 20719 ft | 429 kts | 51° |
| 2026-05-06 20:46 | 52.95948 | 5.73889 | 21137 ft | 432 kts | 51° |
| 2026-05-06 20:47 | 52.97791 | 5.77851 | 21552 ft | 435 kts | 51° |
| 2026-05-06 20:47 | 52.99646 | 5.81847 | 21965 ft | 438 kts | 51° |
| 2026-05-06 20:47 | 53.01511 | 5.85867 | 22377 ft | 441 kts | 51° |
| 2026-05-06 20:47 | 53.03389 | 5.89927 | 22779 ft | 444 kts | 52° |
| 2026-05-06 20:48 | 53.05276 | 5.94014 | 23180 ft | 447 kts | 52° |
| 2026-05-06 20:48 | 53.07170 | 5.98130 | 23565 ft | 450 kts | 52° |
| 2026-05-06 20:48 | 53.09079 | 6.02281 | 23892 ft | 453 kts | 52° |
| 2026-05-06 20:48 | 53.10999 | 6.06460 | 24241 ft | 455 kts | 52° |
| 2026-05-06 20:49 | 53.12949 | 6.10713 | 24581 ft | 457 kts | 52° |
| 2026-05-06 20:49 | 53.14858 | 6.14881 | 24896 ft | 460 kts | 52° |
| 2026-05-06 20:49 | 53.16825 | 6.19184 | 25228 ft | 462 kts | 52° |
| 2026-05-06 20:49 | 53.18750 | 6.23402 | 25547 ft | 464 kts | 52° |
| 2026-05-06 20:50 | 53.20707 | 6.27698 | 25867 ft | 466 kts | 52° |
| 2026-05-06 20:50 | 53.22672 | 6.32022 | 26192 ft | 468 kts | 52° |
| 2026-05-06 20:50 | 53.24641 | 6.36365 | 26493 ft | 470 kts | 52° |
| 2026-05-06 20:50 | 53.26642 | 6.40781 | 26816 ft | 472 kts | 52° |
| 2026-05-06 20:51 | 53.28606 | 6.45115 | 27115 ft | 474 kts | 52° |
| 2026-05-06 20:51 | 53.30598 | 6.49524 | 27419 ft | 476 kts | 52° |
| 2026-05-06 20:51 | 53.32591 | 6.53945 | 27719 ft | 478 kts | 52° |
| 2026-05-06 20:51 | 53.34684 | 6.58392 | 28023 ft | 480 kts | 47° |
| 2026-05-06 20:52 | 53.37055 | 6.62331 | 28314 ft | 481 kts | 41° |
| 2026-05-06 20:52 | 53.39503 | 6.66062 | 28604 ft | 483 kts | 41° |
| 2026-05-06 20:52 | 53.42006 | 6.69895 | 29009 ft | 481 kts | 41° |
| 2026-05-06 20:52 | 53.44476 | 6.73694 | 29432 ft | 480 kts | 42° |
| 2026-05-06 20:53 | 53.46920 | 6.77470 | 29877 ft | 478 kts | 42° |
| 2026-05-06 20:53 | 53.49360 | 6.81252 | 30226 ft | 477 kts | 42° |
| 2026-05-06 20:53 | 53.51798 | 6.85038 | 30566 ft | 476 kts | 42° |
| 2026-05-06 20:53 | 53.54221 | 6.88803 | 30942 ft | 475 kts | 42° |
| 2026-05-06 20:54 | 53.56637 | 6.92571 | 31237 ft | 475 kts | 42° |
| 2026-05-06 20:54 | 53.59035 | 6.96432 | 31548 ft | 475 kts | 43° |
| 2026-05-06 20:54 | 53.61383 | 7.00340 | 31885 ft | 475 kts | 44° |
| 2026-05-06 20:54 | 53.63705 | 7.04291 | 32232 ft | 474 kts | 45° |
| 2026-05-06 20:55 | 53.66011 | 7.08249 | 32579 ft | 473 kts | 45° |
| 2026-05-06 20:55 | 53.68319 | 7.12207 | 32880 ft | 473 kts | 44° |
| 2026-05-06 20:55 | 53.70623 | 7.16144 | 32954 ft | 469 kts | 44° |
| 2026-05-06 20:56 | 53.75203 | 7.23910 | 32965 ft | 465 kts | 44° |
| 2026-05-06 20:56 | 53.79772 | 7.31644 | 32963 ft | 465 kts | 44° |
| 2026-05-06 20:57 | 53.84339 | 7.39409 | 32968 ft | 465 kts | 44° |
| 2026-05-06 20:57 | 53.88897 | 7.47215 | 32961 ft | 465 kts | 44° |
| 2026-05-06 20:58 | 53.93444 | 7.55026 | 32971 ft | 465 kts | 44° |
| 2026-05-06 20:58 | 53.97995 | 7.62842 | 32963 ft | 465 kts | 44° |
| 2026-05-06 20:59 | 54.02538 | 7.70683 | 32970 ft | 465 kts | 44° |
| 2026-05-06 20:59 | 54.07064 | 7.78546 | 32958 ft | 465 kts | 45° |
| 2026-05-06 21:00 | 54.11590 | 7.86424 | 32953 ft | 465 kts | 45° |
| 2026-05-06 21:00 | 54.16116 | 7.94324 | 32950 ft | 465 kts | 45° |
| 2026-05-06 21:01 | 54.20636 | 8.02230 | 32945 ft | 465 kts | 45° |
| 2026-05-06 21:01 | 54.25154 | 8.10150 | 32945 ft | 466 kts | 45° |
| 2026-05-06 21:02 | 54.28916 | 8.16767 | 32940 ft | 466 kts | 45° |
| 2026-05-06 21:02 | 54.33429 | 8.24742 | 32935 ft | 467 kts | 45° |
| 2026-05-06 21:03 | 54.37944 | 8.32751 | 32942 ft | 467 kts | 45° |
| 2026-05-06 21:03 | 54.42460 | 8.40781 | 32939 ft | 468 kts | 45° |
| 2026-05-06 21:04 | 54.46969 | 8.48833 | 32952 ft | 468 kts | 45° |
| 2026-05-06 21:04 | 54.51481 | 8.56907 | 32941 ft | 468 kts | 45° |
| 2026-05-06 21:05 | 54.55999 | 8.65013 | 32937 ft | 469 kts | 45° |
| 2026-05-06 21:05 | 54.60509 | 8.73146 | 32942 ft | 470 kts | 45° |
| 2026-05-06 21:06 | 54.65025 | 8.81322 | 32947 ft | 470 kts | 45° |
| 2026-05-06 21:06 | 54.69535 | 8.89507 | 32962 ft | 470 kts | 45° |
| 2026-05-06 21:07 | 54.74041 | 8.97736 | 32955 ft | 471 kts | 45° |
| 2026-05-06 21:07 | 54.78550 | 9.05968 | 32953 ft | 472 kts | 45° |
| 2026-05-06 21:08 | 54.83059 | 9.14237 | 32955 ft | 472 kts | 46° |
| 2026-05-06 21:08 | 54.87544 | 9.22554 | 32951 ft | 472 kts | 47° |
| 2026-05-06 21:09 | 54.91897 | 9.31081 | 32961 ft | 472 kts | 48° |
| 2026-05-06 21:09 | 54.96193 | 9.39718 | 32966 ft | 472 kts | 48° |
| 2026-05-06 21:10 | 55.00501 | 9.48334 | 32975 ft | 472 kts | 48° |
| 2026-05-06 21:10 | 55.04820 | 9.56912 | 32993 ft | 471 kts | 48° |
| 2026-05-06 21:11 | 55.09051 | 9.65671 | 32994 ft | 473 kts | 55° |
| 2026-05-06 21:11 | 55.12007 | 9.75891 | 32999 ft | 473 kts | 73° |
| 2026-05-06 21:12 | 55.13970 | 9.86872 | 32844 ft | 474 kts | 73° |
| 2026-05-06 21:12 | 55.14951 | 9.92378 | 32563 ft | 475 kts | 73° |
| 2026-05-06 21:12 | 55.15928 | 9.97881 | 32291 ft | 474 kts | 74° |
| 2026-05-06 21:12 | 55.16907 | 10.03393 | 32033 ft | 475 kts | 74° |
| 2026-05-06 21:13 | 55.17884 | 10.08910 | 31765 ft | 475 kts | 74° |
| 2026-05-06 21:13 | 55.18859 | 10.14435 | 31502 ft | 476 kts | 74° |
| 2026-05-06 21:13 | 55.19832 | 10.19973 | 31234 ft | 476 kts | 74° |
| 2026-05-06 21:13 | 55.20807 | 10.25534 | 30370 ft | 482 kts | 74° |
| 2026-05-06 21:14 | 55.21798 | 10.31201 | 29253 ft | 489 kts | 74° |
| 2026-05-06 21:14 | 55.22793 | 10.36921 | 28189 ft | 494 kts | 74° |
| 2026-05-06 21:14 | 55.23792 | 10.42678 | 27503 ft | 490 kts | 74° |
| 2026-05-06 21:14 | 55.24777 | 10.48370 | 26833 ft | 487 kts | 74° |
| 2026-05-06 21:15 | 55.25752 | 10.54027 | 26158 ft | 484 kts | 74° |
| 2026-05-06 21:15 | 55.26717 | 10.59659 | 25489 ft | 480 kts | 74° |
| 2026-05-06 21:15 | 55.27672 | 10.65241 | 24874 ft | 476 kts | 74° |
| 2026-05-06 21:15 | 55.28621 | 10.70780 | 24258 ft | 472 kts | 74° |
| 2026-05-06 21:16 | 55.29550 | 10.76194 | 23652 ft | 468 kts | 74° |
| 2026-05-06 21:16 | 55.30497 | 10.81724 | 22994 ft | 464 kts | 74° |
| 2026-05-06 21:16 | 55.31415 | 10.87101 | 22427 ft | 458 kts | 74° |
| 2026-05-06 21:16 | 55.32322 | 10.92423 | 21886 ft | 451 kts | 74° |
| 2026-05-06 21:17 | 55.33212 | 10.97661 | 21346 ft | 445 kts | 74° |
| 2026-05-06 21:17 | 55.34081 | 11.02824 | 20844 ft | 438 kts | 74° |
| 2026-05-06 21:17 | 55.34932 | 11.07926 | 20345 ft | 432 kts | 74° |
| 2026-05-06 21:17 | 55.35765 | 11.12957 | 19868 ft | 425 kts | 74° |
| 2026-05-06 21:18 | 55.36579 | 11.17902 | 19413 ft | 419 kts | 74° |
| 2026-05-06 21:18 | 55.37379 | 11.22784 | 18972 ft | 413 kts | 74° |
| 2026-05-06 21:18 | 55.38157 | 11.27539 | 18541 ft | 407 kts | 73° |
| 2026-05-06 21:18 | 55.38937 | 11.32294 | 18069 ft | 402 kts | 73° |
| 2026-05-06 21:19 | 55.39704 | 11.36986 | 17624 ft | 396 kts | 73° |
| 2026-05-06 21:19 | 55.40452 | 11.41589 | 17371 ft | 385 kts | 74° |
| 2026-05-06 21:19 | 55.41174 | 11.46044 | 17231 ft | 372 kts | 74° |
| 2026-05-06 21:19 | 55.41868 | 11.50340 | 17099 ft | 360 kts | 74° |
| 2026-05-06 21:20 | 55.42541 | 11.54515 | 16958 ft | 348 kts | 74° |
| 2026-05-06 21:20 | 55.43204 | 11.58555 | 16751 ft | 339 kts | 71° |
| 2026-05-06 21:20 | 55.44169 | 11.62280 | 16549 ft | 331 kts | 57° |
| 2026-05-06 21:20 | 55.45543 | 11.65539 | 16257 ft | 331 kts | 45° |
| 2026-05-06 21:21 | 55.47218 | 11.68286 | 15841 ft | 329 kts | 40° |
| 2026-05-06 21:21 | 55.48935 | 11.70958 | 15424 ft | 328 kts | 40° |
| 2026-05-06 21:21 | 55.50635 | 11.73617 | 15099 ft | 325 kts | 40° |
| 2026-05-06 21:21 | 55.52327 | 11.76267 | 14719 ft | 323 kts | 40° |
| 2026-05-06 21:22 | 55.53998 | 11.78884 | 14399 ft | 320 kts | 40° |
| 2026-05-06 21:22 | 55.55659 | 11.81492 | 14024 ft | 319 kts | 40° |
| 2026-05-06 21:22 | 55.57312 | 11.84093 | 13663 ft | 317 kts | 41° |
| 2026-05-06 21:22 | 55.58948 | 11.86671 | 13281 ft | 314 kts | 41° |
| 2026-05-06 21:23 | 55.60574 | 11.89234 | 12905 ft | 312 kts | 41° |
| 2026-05-06 21:23 | 55.62187 | 11.91784 | 12530 ft | 310 kts | 41° |
| 2026-05-06 21:23 | 55.63789 | 11.94319 | 12163 ft | 307 kts | 41° |
| 2026-05-06 21:23 | 55.65377 | 11.96832 | 11803 ft | 305 kts | 41° |
| 2026-05-06 21:24 | 55.66953 | 11.99324 | 11444 ft | 303 kts | 41° |
| 2026-05-06 21:24 | 55.68519 | 12.01804 | 11074 ft | 301 kts | 41° |
| 2026-05-06 21:24 | 55.70079 | 12.04271 | 10716 ft | 299 kts | 41° |
| 2026-05-06 21:24 | 55.71583 | 12.06801 | 10360 ft | 297 kts | 49° |
| 2026-05-06 21:25 | 55.72685 | 12.09892 | 9916 ft | 299 kts | 67° |
| 2026-05-06 21:25 | 55.73215 | 12.13415 | 9601 ft | 295 kts | 84° |
| 2026-05-06 21:25 | 55.73177 | 12.17020 | 9235 ft | 292 kts | 96° |
| 2026-05-06 21:25 | 55.72956 | 12.20577 | 8898 ft | 289 kts | 96° |
| 2026-05-06 21:26 | 55.72735 | 12.24105 | 8598 ft | 286 kts | 95° |
| 2026-05-06 21:26 | 55.72519 | 12.27586 | 8295 ft | 283 kts | 96° |
| 2026-05-06 21:26 | 55.72305 | 12.31039 | 8002 ft | 281 kts | 94° |
| 2026-05-06 21:26 | 55.72091 | 12.34479 | 7693 ft | 280 kts | 95° |
| 2026-05-06 21:27 | 55.71876 | 12.37893 | 7406 ft | 278 kts | 95° |
| 2026-05-06 21:27 | 55.71664 | 12.41287 | 7118 ft | 275 kts | 95° |
| 2026-05-06 21:27 | 55.71452 | 12.44644 | 6830 ft | 273 kts | 95° |
| 2026-05-06 21:27 | 55.71251 | 12.47974 | 6545 ft | 270 kts | 91° |
| 2026-05-06 21:28 | 55.71383 | 12.51265 | 6252 ft | 266 kts | 76° |
| 2026-05-06 21:28 | 55.71983 | 12.54348 | 5963 ft | 263 kts | 62° |
| 2026-05-06 21:28 | 55.72817 | 12.57238 | 5685 ft | 263 kts | 62° |
| 2026-05-06 21:28 | 55.73643 | 12.60115 | 5422 ft | 261 kts | 62° |
| 2026-05-06 21:29 | 55.74480 | 12.62975 | 5139 ft | 260 kts | 58° |
| 2026-05-06 21:29 | 55.75596 | 12.65465 | 4893 ft | 257 kts | 43° |
| 2026-05-06 21:29 | 55.76943 | 12.67564 | 4742 ft | 258 kts | 41° |
| 2026-05-06 21:29 | 55.78292 | 12.69659 | 4536 ft | 257 kts | 41° |
| 2026-05-06 21:30 | 55.79638 | 12.71760 | 4351 ft | 257 kts | 41° |
| 2026-05-06 21:30 | 55.80959 | 12.73822 | 4173 ft | 248 kts | 42° |
| 2026-05-06 21:30 | 55.82218 | 12.75815 | 4050 ft | 237 kts | 46° |
| 2026-05-06 21:30 | 55.83016 | 12.78258 | 3890 ft | 226 kts | 79° |
| 2026-05-06 21:31 | 55.82923 | 12.80961 | 3815 ft | 223 kts | 110° |
| 2026-05-06 21:31 | 55.82061 | 12.83238 | 3681 ft | 225 kts | 131° |
| 2026-05-06 21:31 | 55.81016 | 12.85310 | 3509 ft | 224 kts | 130° |
| 2026-05-06 21:31 | 55.79979 | 12.87376 | 3329 ft | 224 kts | 132° |
| 2026-05-06 21:32 | 55.78632 | 12.88982 | 3156 ft | 245 kts | 164° |
| 2026-05-06 21:32 | 55.75598 | 12.87225 | 2759 ft | 237 kts | 220° |
| 2026-05-06 21:32 | 55.74394 | 12.85265 | 2582 ft | 232 kts | 221° |
| 2026-05-06 21:33 | 55.73200 | 12.83355 | 2424 ft | 231 kts | 220° |
| 2026-05-06 21:33 | 55.72002 | 12.81479 | 2263 ft | 227 kts | 220° |
| 2026-05-06 21:33 | 55.70853 | 12.79687 | 2153 ft | 213 kts | 219° |
| 2026-05-06 21:33 | 55.69746 | 12.77962 | 1978 ft | 206 kts | 219° |
| 2026-05-06 21:34 | 55.68719 | 12.76360 | 1739 ft | 188 kts | 219° |
| 2026-05-06 21:34 | 55.67760 | 12.74867 | 1470 ft | 175 kts | 219° |
| 2026-05-06 21:34 | 55.66873 | 12.73488 | 1231 ft | 166 kts | 219° |
| 2026-05-06 21:34 | 55.66020 | 12.72162 | 1002 ft | 162 kts | 219° |
| 2026-05-06 21:35 | 55.65178 | 12.70855 | 771 ft | 160 kts | 218° |
| 2026-05-06 21:35 | 55.64355 | 12.69577 | 551 ft | 159 kts | 219° |
| 2026-05-06 21:35 | 55.63536 | 12.68306 | 373 ft | 151 kts | 220° |
| 2026-05-06 21:35 | 55.62777 | 12.67124 | 111 ft | 146 kts | 220° |
| 2026-05-06 21:36 | 55.62072 | 12.66021 | 19 ft | 130 kts | 219° |
| 2026-05-06 21:36 | 55.61564 | 12.65237 | 20 ft | 70 kts | 220° |
| 2026-05-06 21:36 | 55.61333 | 12.64856 | 21 ft | 27 kts | 236° |
| 2026-05-06 21:36 | 55.61254 | 12.64608 | 22 ft | 18 kts | 254° |
| 2026-05-06 21:37 | 55.61216 | 12.64395 | 24 ft | 20 kts | 249° |
| 2026-05-06 21:37 | 55.61199 | 12.64178 | 23 ft | 17 kts | 294° |
| 2026-05-06 21:37 | 55.61290 | 12.64127 | 24 ft | 14 kts | 24° |
| 2026-05-06 21:37 | 55.61386 | 12.64232 | 25 ft | 19 kts | 34° |
| 2026-05-06 21:38 | 55.61509 | 12.64375 | 24 ft | 24 kts | 32° |
| 2026-05-06 21:38 | 55.61660 | 12.64549 | 25 ft | 25 kts | 33° |
| 2026-05-06 21:38 | 55.61803 | 12.64717 | 24 ft | 24 kts | 33° |
| 2026-05-06 21:38 | 55.61939 | 12.64878 | 23 ft | 23 kts | 33° |
| 2026-05-06 21:39 | 55.62073 | 12.65035 | 24 ft | 22 kts | 33° |
| 2026-05-06 21:39 | 55.62196 | 12.65173 | 25 ft | 20 kts | 29° |
| 2026-05-06 21:39 | 55.62325 | 12.65201 | 25 ft | 18 kts | 350° |
| 2026-05-06 21:39 | 55.62363 | 12.65063 | 24 ft | 10 kts | 277° |
| 2026-05-06 21:40 | 55.62363 | 12.65058 | 24 ft | 0 kts | 277° |